createdAt,value
2023-05-05T00:02:17.993Z,8.61
2023-05-05T00:04:45.563Z,8.62
2023-05-05T00:07:13.160Z,8.63
2023-05-05T00:09:41.930Z,8.64
2023-05-05T00:12:09.541Z,8.62
2023-05-05T00:14:37.089Z,8.65
2023-05-05T00:17:05.382Z,8.64
2023-05-05T00:19:32.922Z,8.62
2023-05-05T00:22:00.486Z,8.62
2023-05-05T00:24:28.031Z,8.63
2023-05-05T00:26:56.023Z,8.65
2023-05-05T00:29:23.657Z,8.64
2023-05-05T00:31:52.538Z,8.65
2023-05-05T00:34:20.700Z,8.69
2023-05-05T00:36:48.536Z,8.71
2023-05-05T00:39:16.526Z,8.70
2023-05-05T00:41:44.063Z,8.72
2023-05-05T00:44:11.707Z,8.76
2023-05-05T00:46:40.693Z,8.77
2023-05-05T00:49:08.574Z,8.78
2023-05-05T00:51:36.240Z,8.78
2023-05-05T00:54:03.918Z,8.81
2023-05-05T00:56:31.882Z,8.81
2023-05-05T00:58:59.625Z,8.86
2023-05-05T01:01:27.979Z,8.88
2023-05-05T01:03:55.728Z,8.90
2023-05-05T01:06:41.439Z,8.92
2023-05-05T01:09:27.164Z,8.96
2023-05-05T01:12:12.158Z,8.94
2023-05-05T01:14:44.097Z,8.94
2023-05-05T01:17:22.069Z,8.93
2023-05-05T01:20:11.983Z,8.97
2023-05-05T01:22:53.421Z,8.99
2023-05-05T01:25:27.295Z,8.98
2023-05-05T01:28:27.437Z,8.95
2023-05-05T01:31:02.628Z,8.95
2023-05-05T01:33:37.643Z,8.95
2023-05-05T01:36:13.831Z,8.96
2023-05-05T01:38:44.862Z,8.94
2023-05-05T01:41:17.645Z,8.93
2023-05-05T01:43:49.990Z,8.91
2023-05-05T01:46:20.319Z,8.95
2023-05-05T01:48:49.383Z,8.95
2023-05-05T01:51:19.358Z,8.98
2023-05-05T01:53:47.964Z,8.95
2023-05-05T01:56:16.560Z,8.94
2023-05-05T01:58:47.255Z,8.95
2023-05-05T02:01:17.146Z,8.97
2023-05-05T02:03:47.601Z,8.98
2023-05-05T02:06:16.888Z,8.98
2023-05-05T02:08:46.112Z,8.98
2023-05-05T02:11:15.043Z,9.02
2023-05-05T02:13:47.582Z,9.03
2023-05-05T02:16:18.489Z,9.02
2023-05-05T02:18:49.050Z,8.98
2023-05-05T02:21:18.231Z,8.98
2023-05-05T02:23:56.786Z,8.96
2023-05-05T02:26:26.316Z,8.88
2023-05-05T02:29:02.253Z,8.81
2023-05-05T02:31:32.903Z,8.79
2023-05-05T02:34:05.632Z,8.76
2023-05-05T02:36:39.425Z,8.67
2023-05-05T02:39:18.257Z,8.61
2023-05-05T02:41:48.835Z,8.58
2023-05-05T02:44:27.124Z,8.56
2023-05-05T02:46:57.006Z,8.53
2023-05-05T02:49:26.502Z,8.53
2023-05-05T02:51:59.403Z,8.51
2023-05-05T02:54:32.257Z,8.55
2023-05-05T02:57:01.083Z,8.56
2023-05-05T02:59:34.698Z,8.50
2023-05-05T03:02:15.503Z,8.50
2023-05-05T03:04:50.988Z,8.49
2023-05-05T03:07:44.237Z,8.49
2023-05-05T03:10:20.623Z,8.52
2023-05-05T03:12:55.510Z,8.52
2023-05-05T03:15:38.012Z,8.55
2023-05-05T03:18:06.981Z,8.55
2023-05-05T03:20:35.927Z,8.55
2023-05-05T03:23:08.523Z,8.57
2023-05-05T03:25:43.806Z,8.62
2023-05-05T03:28:16.835Z,8.63
2023-05-05T03:30:45.603Z,8.66
2023-05-05T03:33:17.077Z,8.66
2023-05-05T03:35:45.070Z,8.69
2023-05-05T03:38:14.225Z,8.70
2023-05-05T03:40:45.030Z,8.76
2023-05-05T03:43:17.250Z,8.78
2023-05-05T03:45:45.065Z,8.78
2023-05-05T03:48:13.214Z,8.80
2023-05-05T03:50:46.126Z,8.83
2023-05-05T03:53:15.704Z,8.85
2023-05-05T03:55:44.370Z,8.87
2023-05-05T03:58:12.884Z,8.86
2023-05-05T04:00:40.695Z,8.87
2023-05-05T04:03:09.510Z,8.86
2023-05-05T04:05:38.381Z,8.86
2023-05-05T04:08:06.903Z,8.86
2023-05-05T04:10:35.159Z,8.86
2023-05-05T04:13:03.610Z,8.87
2023-05-05T04:15:34.735Z,8.88
2023-05-05T04:18:04.694Z,8.84
2023-05-05T04:20:35.413Z,8.81
2023-05-05T04:23:03.748Z,8.78
2023-05-05T04:25:31.685Z,8.77
2023-05-05T04:27:59.441Z,8.74
2023-05-05T04:30:27.469Z,8.75
2023-05-05T04:32:55.486Z,8.77
2023-05-05T04:35:23.613Z,8.77
2023-05-05T04:37:54.913Z,8.78
2023-05-05T04:40:23.435Z,8.78
2023-05-05T04:42:51.251Z,8.78
2023-05-05T04:45:19.316Z,8.81
2023-05-05T04:47:49.043Z,8.80
2023-05-05T04:50:23.056Z,8.79
2023-05-05T04:52:52.543Z,8.77
2023-05-05T04:55:20.851Z,8.79
2023-05-05T04:57:49.105Z,8.78
2023-05-05T05:00:17.530Z,8.78
2023-05-05T05:02:45.401Z,8.82
2023-05-05T05:05:14.996Z,8.81
2023-05-05T05:07:43.747Z,8.82
2023-05-05T05:12:55.905Z,8.85
2023-05-05T05:15:26.242Z,8.89
2023-05-05T05:17:55.055Z,8.92
2023-05-05T05:23:04.705Z,8.94
2023-05-05T05:25:35.781Z,8.96
2023-05-05T05:28:10.024Z,8.98
2023-05-05T05:30:43.611Z,9.02
2023-05-05T05:33:15.349Z,9.04
2023-05-05T05:35:45.790Z,9.08
2023-05-05T05:38:14.606Z,9.13
2023-05-05T05:40:44.027Z,9.16
2023-05-05T05:43:13.299Z,9.15
2023-05-05T05:48:33.723Z,9.15
2023-05-05T05:51:04.225Z,9.19
2023-05-05T05:53:34.377Z,9.19
2023-05-05T05:56:06.907Z,9.19
2023-05-05T05:58:36.667Z,9.22
2023-05-05T06:01:05.862Z,9.25
2023-05-05T06:03:34.352Z,9.28
2023-05-05T06:06:03.487Z,9.29
2023-05-05T06:08:36.849Z,9.29
2023-05-05T06:11:04.738Z,9.29
2023-05-05T06:13:35.296Z,9.28
2023-05-05T06:16:03.791Z,9.29
2023-05-05T06:18:32.029Z,9.30
2023-05-05T06:23:47.456Z,9.38
2023-05-05T06:26:23.780Z,9.45
2023-05-05T06:28:53.634Z,9.49
2023-05-05T06:31:22.071Z,9.54
2023-05-05T06:33:54.087Z,9.57
2023-05-05T06:39:08.986Z,9.68
2023-05-05T06:41:36.586Z,9.71
2023-05-05T06:44:04.878Z,9.74
2023-05-05T06:46:32.477Z,9.80
2023-05-05T06:49:00.150Z,9.87
2023-05-05T06:51:27.756Z,9.93
2023-05-05T06:53:55.254Z,9.95
2023-05-05T06:56:23.996Z,9.97
2023-05-05T06:58:51.655Z,9.99
2023-05-05T07:01:19.297Z,10.01
2023-05-05T07:03:46.891Z,10.03
2023-05-05T07:06:14.467Z,10.10
2023-05-05T07:08:42.150Z,10.20
2023-05-05T07:11:09.804Z,10.26
2023-05-05T07:13:37.331Z,10.32
2023-05-05T07:16:05.309Z,10.39
2023-05-05T07:18:32.877Z,10.44
2023-05-05T07:21:01.512Z,10.51
2023-05-05T07:23:29.013Z,10.63
2023-05-05T07:25:56.724Z,10.70
2023-05-05T07:28:24.335Z,10.81
2023-05-05T07:30:52.171Z,10.99
2023-05-05T07:33:19.764Z,11.11
2023-05-05T07:35:47.282Z,11.21
2023-05-05T07:38:14.939Z,11.27
2023-05-05T07:40:42.807Z,11.27
2023-05-05T07:43:10.597Z,11.30
2023-05-05T07:45:38.166Z,11.26
2023-05-05T07:48:05.919Z,11.27
2023-05-05T07:50:33.463Z,11.27
2023-05-05T07:53:10.826Z,11.33
2023-05-05T07:55:42.564Z,11.34
2023-05-05T07:58:11.199Z,11.36
2023-05-05T08:00:39.189Z,11.40
2023-05-05T08:03:08.954Z,11.41
2023-05-05T08:05:38.642Z,11.46
2023-05-05T08:08:07.119Z,11.43
2023-05-05T08:10:34.806Z,11.44
2023-05-05T08:13:02.493Z,11.45
2023-05-05T08:15:30.161Z,11.53
2023-05-05T08:17:57.696Z,11.59
2023-05-05T08:20:28.907Z,11.66
2023-05-05T08:22:56.904Z,11.64
2023-05-05T08:25:26.916Z,11.64
2023-05-05T08:27:54.642Z,11.61
2023-05-05T08:30:28.216Z,11.62
2023-05-05T08:32:56.064Z,11.71
2023-05-05T08:35:24.037Z,11.85
2023-05-05T08:37:52.016Z,12.03
2023-05-05T08:40:25.165Z,12.23
2023-05-05T08:42:52.876Z,12.43
2023-05-05T08:45:20.581Z,12.59
2023-05-05T08:47:48.958Z,12.62
2023-05-05T08:50:17.507Z,12.60
2023-05-05T08:52:51.650Z,12.55
2023-05-05T08:55:26.895Z,12.57
2023-05-05T08:58:01.257Z,12.65
2023-05-05T09:00:29.432Z,12.73
2023-05-05T09:02:58.855Z,12.84
2023-05-05T09:05:27.089Z,12.94
2023-05-05T09:07:54.729Z,13.10
2023-05-05T09:10:22.469Z,13.16
2023-05-05T09:12:51.599Z,13.17
2023-05-05T09:15:19.322Z,13.14
2023-05-05T09:17:47.358Z,13.07
2023-05-05T09:20:15.422Z,13.00
2023-05-05T09:22:44.792Z,12.90
2023-05-05T09:25:14.401Z,12.76
2023-05-05T09:27:43.117Z,12.61
2023-05-05T09:30:12.275Z,12.57
2023-05-05T09:32:51.272Z,12.63
2023-05-05T09:35:20.567Z,12.72
2023-05-05T09:37:48.536Z,12.71
2023-05-05T09:40:18.773Z,12.72
2023-05-05T09:42:47.462Z,12.79
2023-05-05T09:45:17.769Z,12.86
2023-05-05T09:47:47.283Z,12.89
2023-05-05T09:50:18.687Z,12.85
2023-05-05T09:53:00.450Z,12.83
2023-05-05T09:55:28.443Z,12.85
2023-05-05T09:57:56.340Z,12.82
2023-05-05T10:00:38.830Z,12.78
2023-05-05T10:03:06.832Z,12.79
2023-05-05T10:05:52.966Z,12.84
2023-05-05T10:08:22.710Z,12.92
2023-05-05T10:10:55.464Z,13.01
2023-05-05T10:13:24.354Z,13.08
2023-05-05T10:15:54.708Z,13.14
2023-05-05T10:18:23.595Z,13.20
2023-05-05T10:21:03.367Z,13.24
2023-05-05T10:23:48.008Z,13.29
2023-05-05T10:26:17.172Z,13.37
2023-05-05T10:28:49.985Z,13.43
2023-05-05T10:31:26.766Z,13.57
2023-05-05T10:34:03.551Z,13.63
2023-05-05T10:36:32.096Z,13.67
2023-05-05T10:39:00.588Z,13.73
2023-05-05T10:41:30.983Z,13.87
2023-05-05T10:44:01.342Z,14.04
2023-05-05T10:46:31.773Z,14.19
2023-05-05T10:49:13.547Z,14.31
2023-05-05T10:51:57.824Z,14.33
2023-05-05T10:54:45.779Z,14.44
2023-05-05T10:57:16.909Z,14.54
2023-05-05T10:59:44.614Z,14.69
2023-05-05T11:02:31.469Z,14.69
2023-05-05T11:05:27.592Z,14.68
2023-05-05T11:08:27.463Z,14.67
2023-05-05T11:10:55.061Z,14.64
2023-05-05T11:13:22.977Z,14.67
2023-05-05T11:15:58.170Z,14.71
2023-05-05T11:18:30.781Z,14.85
2023-05-05T11:20:58.274Z,15.05
2023-05-05T11:23:26.890Z,15.13
2023-05-05T11:25:55.891Z,15.18
2023-05-05T11:28:25.951Z,15.29
2023-05-05T11:30:57.288Z,15.39
2023-05-05T11:33:54.096Z,15.76
2023-05-05T11:36:39.879Z,16.37
2023-05-05T11:39:39.068Z,16.92
2023-05-05T11:42:40.836Z,16.98
2023-05-05T11:45:23.099Z,16.70
2023-05-05T11:48:27.138Z,16.41
2023-05-05T11:50:55.204Z,16.26
2023-05-05T11:53:23.397Z,16.08
2023-05-05T11:56:06.434Z,15.82
2023-05-05T11:58:34.046Z,15.63
2023-05-05T12:01:06.298Z,15.48
2023-05-05T12:03:38.176Z,15.41
2023-05-05T12:06:07.266Z,15.36
2023-05-05T12:08:39.168Z,15.27
2023-05-05T12:11:11.652Z,15.27
2023-05-05T12:13:39.395Z,15.17
2023-05-05T12:16:16.689Z,15.07
2023-05-05T12:18:44.378Z,14.95
2023-05-05T12:21:20.218Z,14.87
2023-05-05T12:23:47.971Z,14.88
2023-05-05T12:26:29.780Z,15.04
2023-05-05T12:29:01.101Z,15.15
2023-05-05T12:31:42.131Z,15.17
2023-05-05T12:34:11.189Z,15.17
2023-05-05T12:36:39.625Z,15.10
2023-05-05T12:39:08.015Z,15.05
2023-05-05T12:41:35.945Z,14.98
2023-05-05T12:44:04.124Z,14.85
2023-05-05T12:46:45.541Z,14.82
2023-05-05T12:49:13.630Z,14.79
2023-05-05T12:51:56.553Z,14.77
2023-05-05T12:54:25.144Z,14.81
2023-05-05T12:56:52.718Z,14.86
2023-05-05T12:59:23.369Z,14.88
2023-05-05T13:01:55.594Z,14.86
2023-05-05T13:04:25.202Z,14.82
2023-05-05T13:07:12.532Z,14.80
2023-05-05T13:09:40.785Z,14.81
2023-05-05T13:12:08.737Z,14.85
2023-05-05T13:14:36.668Z,14.87
2023-05-05T13:17:04.527Z,14.86
2023-05-05T13:19:32.156Z,14.86
2023-05-05T13:22:00.023Z,14.89
2023-05-05T13:24:38.595Z,14.98
2023-05-05T13:27:14.752Z,15.14
2023-05-05T13:29:42.516Z,15.38
2023-05-05T13:32:11.325Z,15.62
2023-05-05T13:34:39.436Z,16.05
2023-05-05T13:37:07.370Z,16.77
2023-05-05T13:39:34.881Z,17.31
2023-05-05T13:42:03.009Z,17.50
2023-05-05T13:44:31.008Z,17.54
2023-05-05T13:46:58.867Z,17.45
2023-05-05T13:49:27.138Z,17.24
2023-05-05T13:51:56.298Z,16.98
2023-05-05T13:54:23.986Z,16.71
2023-05-05T13:56:51.706Z,16.47
2023-05-05T13:59:19.311Z,16.17
2023-05-05T14:01:46.924Z,15.91
2023-05-05T14:04:14.546Z,15.80
2023-05-05T14:06:42.096Z,15.93
2023-05-05T14:09:09.662Z,16.32
2023-05-05T14:11:37.214Z,16.59
2023-05-05T14:18:18.868Z,16.96
2023-05-05T14:20:46.452Z,17.02
2023-05-05T14:23:13.992Z,17.16
2023-05-05T14:25:41.626Z,17.37
2023-05-05T16:22:43.780Z,17.84
2023-05-05T16:25:11.432Z,17.75
2023-05-05T16:27:39.030Z,17.68
2023-05-05T16:30:08.655Z,17.61
2023-05-05T16:32:36.312Z,17.62
2023-05-05T16:35:04.114Z,17.66
2023-05-05T16:37:31.713Z,17.68
2023-05-05T16:40:00.792Z,17.67
2023-05-05T16:42:28.802Z,17.61
2023-05-05T16:44:59.051Z,17.55
2023-05-05T16:47:27.372Z,17.51
2023-05-05T16:49:55.072Z,17.47
2023-05-05T16:52:22.686Z,17.43
2023-05-05T16:54:55.542Z,17.44
2023-05-05T16:57:23.809Z,17.43
2023-05-05T16:59:51.484Z,17.36
2023-05-05T17:02:19.102Z,17.33
2023-05-05T17:04:46.653Z,17.27
2023-05-05T17:07:14.224Z,17.28
2023-05-05T17:09:41.743Z,17.26
2023-05-05T17:12:09.402Z,17.35
2023-05-05T17:14:36.952Z,17.42
2023-05-05T17:17:04.536Z,17.46
2023-05-05T17:19:32.042Z,17.46
2023-05-05T17:21:59.610Z,17.39
2023-05-05T17:24:27.294Z,17.37
2023-05-05T17:26:55.598Z,17.27
2023-05-05T17:29:23.363Z,17.10
2023-05-05T17:31:51.041Z,16.92
2023-05-05T17:34:18.661Z,16.77
2023-05-05T17:36:46.298Z,16.62
2023-05-05T17:39:13.992Z,16.49
2023-05-05T17:41:42.507Z,16.37
2023-05-05T17:44:10.023Z,16.15
2023-05-05T17:46:37.726Z,15.93
2023-05-05T17:49:05.292Z,15.68
2023-05-05T17:51:33.094Z,15.40
2023-05-05T17:54:01.862Z,15.19
2023-05-05T17:56:29.570Z,15.08
2023-05-05T17:58:57.191Z,15.02
2023-05-05T18:01:26.568Z,14.92
2023-05-05T18:03:54.484Z,14.83
2023-05-05T18:06:22.011Z,14.72
2023-05-05T18:08:49.543Z,14.65
2023-05-05T18:11:17.309Z,14.58
2023-05-05T18:13:44.991Z,14.49
2023-05-05T18:16:12.613Z,14.41
2023-05-05T18:18:41.299Z,14.34
2023-05-05T18:21:12.278Z,14.30
2023-05-05T18:23:40.433Z,14.29
2023-05-05T18:26:08.720Z,14.26
2023-05-05T18:28:37.232Z,14.25
2023-05-05T18:31:05.548Z,14.19
2023-05-05T18:33:33.184Z,14.11
2023-05-05T18:36:02.414Z,14.07
2023-05-05T18:38:32.188Z,14.00
2023-05-05T18:40:59.747Z,13.95
2023-05-05T18:43:27.271Z,13.86
2023-05-05T18:45:54.867Z,13.78
2023-05-05T18:48:22.446Z,13.65
2023-05-05T18:50:51.452Z,13.51
2023-05-05T18:53:19.146Z,13.42
2023-05-05T18:55:47.284Z,13.27
2023-05-05T18:58:16.808Z,13.16
2023-05-05T19:00:44.440Z,13.05
2023-05-05T19:03:12.151Z,12.95
2023-05-05T19:05:40.778Z,12.88
2023-05-05T19:08:08.548Z,12.80
2023-05-05T19:10:36.352Z,12.75
2023-05-05T19:13:04.832Z,12.64
2023-05-05T19:15:32.728Z,12.57
2023-05-05T19:18:00.852Z,12.53
2023-05-05T19:20:30.929Z,12.50
2023-05-05T19:23:03.724Z,12.43
2023-05-05T19:25:31.612Z,12.32
2023-05-05T19:27:59.290Z,12.28
2023-05-05T19:30:27.084Z,12.18
2023-05-05T19:32:54.605Z,12.13
2023-05-05T19:35:22.491Z,12.10
2023-05-05T19:37:50.563Z,12.03
2023-05-05T19:40:18.191Z,11.92
2023-05-05T19:42:45.711Z,11.83
2023-05-05T19:45:13.429Z,11.79
2023-05-05T19:47:41.104Z,11.70
2023-05-05T19:50:09.568Z,11.62
2023-05-05T19:52:41.518Z,11.55
2023-05-05T19:55:10.592Z,11.50
2023-05-05T19:57:38.442Z,11.41
2023-05-05T20:00:07.700Z,11.37
2023-05-05T20:02:37.004Z,11.29
2023-05-05T20:05:05.380Z,11.25
2023-05-05T20:07:33.053Z,11.20
2023-05-05T20:10:01.024Z,11.16
2023-05-05T20:12:28.648Z,11.13
2023-05-05T20:14:56.318Z,11.05
2023-05-05T20:17:24.028Z,10.98
2023-05-05T20:19:51.715Z,10.94
2023-05-05T20:22:19.264Z,10.91
2023-05-05T20:24:46.875Z,10.89
2023-05-05T20:27:17.419Z,10.88
2023-05-05T20:29:45.103Z,10.85
2023-05-05T20:32:12.598Z,10.82
2023-05-05T20:34:40.195Z,10.79
2023-05-05T20:37:07.816Z,10.74
2023-05-05T20:39:35.462Z,10.73
2023-05-05T20:42:03.368Z,10.70
2023-05-05T20:44:32.106Z,10.69
2023-05-05T20:46:59.718Z,10.69
2023-05-05T20:49:27.294Z,10.69
2023-05-05T20:51:54.858Z,10.68
2023-05-05T20:54:22.427Z,10.66
2023-05-05T20:56:49.973Z,10.65
2023-05-05T20:59:17.539Z,10.64
2023-05-05T21:01:45.285Z,10.63
2023-05-05T21:04:12.839Z,10.66
2023-05-05T21:06:40.396Z,10.65
2023-05-05T21:09:08.021Z,10.71
2023-05-05T21:11:35.588Z,10.75
2023-05-05T21:14:05.540Z,10.77
2023-05-05T21:16:33.222Z,10.77
2023-05-05T21:19:00.943Z,10.76
2023-05-05T21:21:28.713Z,10.77
2023-05-05T21:23:57.670Z,10.76
2023-05-05T21:26:25.326Z,10.75
2023-05-05T21:28:52.913Z,10.74
2023-05-05T21:31:22.108Z,10.75
2023-05-05T21:33:50.029Z,10.75
2023-05-05T21:36:19.222Z,10.76
2023-05-05T21:38:47.109Z,10.78
2023-05-05T21:41:14.697Z,10.83
2023-05-05T21:43:42.454Z,10.87
2023-05-05T21:46:10.086Z,10.91
2023-05-05T21:48:39.129Z,10.93
2023-05-05T21:51:07.325Z,10.93
2023-05-05T21:53:35.104Z,10.96
2023-05-05T21:56:02.736Z,10.98
2023-05-05T21:58:30.443Z,10.99
2023-05-05T22:00:58.035Z,11.00
2023-05-05T22:03:26.288Z,10.97
2023-05-05T22:05:53.973Z,10.95
2023-05-05T22:08:21.694Z,10.94
2023-05-05T22:10:49.231Z,10.91
2023-05-05T22:13:16.916Z,10.91
2023-05-05T22:15:47.127Z,10.92
2023-05-05T22:18:15.787Z,10.92
2023-05-05T22:20:44.061Z,10.86
2023-05-05T22:23:11.958Z,10.82
2023-05-05T22:25:39.566Z,10.79
2023-05-05T22:28:07.142Z,10.75
2023-05-05T22:30:34.681Z,10.70
2023-05-05T22:33:02.575Z,10.64
2023-05-05T22:35:30.254Z,10.61
2023-05-05T22:37:58.051Z,10.60
2023-05-05T22:40:25.692Z,10.56
2023-05-05T22:42:53.291Z,10.53
2023-05-05T22:45:22.387Z,10.51
2023-05-05T22:47:50.453Z,10.57
2023-05-05T22:50:18.638Z,10.59
2023-05-05T22:52:46.209Z,10.62
2023-05-05T22:55:15.033Z,10.65
2023-05-05T22:57:43.163Z,10.71
2023-05-05T23:00:10.960Z,10.74
2023-05-05T23:02:38.939Z,10.80
2023-05-05T23:05:07.060Z,10.86
2023-05-05T23:07:34.665Z,10.91
2023-05-05T23:10:02.460Z,10.95
2023-05-05T23:12:30.196Z,11.00
2023-05-05T23:14:57.801Z,11.01
2023-05-05T23:17:25.455Z,11.03
2023-05-05T23:19:53.196Z,11.03
2023-05-05T23:22:20.802Z,11.04
2023-05-05T23:24:48.302Z,11.05
2023-05-05T23:27:15.859Z,11.09
2023-05-05T23:29:43.447Z,11.12
2023-05-05T23:32:11.043Z,11.13
2023-05-05T23:34:39.191Z,11.12
2023-05-05T23:37:06.761Z,11.11
2023-05-05T23:39:34.783Z,11.12
2023-05-05T23:42:02.417Z,11.15
2023-05-05T23:44:30.052Z,11.15
2023-05-05T23:46:57.648Z,11.10
2023-05-05T23:49:26.435Z,11.06
2023-05-05T23:51:54.021Z,11.00
2023-05-05T23:54:21.543Z,10.95
2023-05-05T23:56:49.154Z,10.89
2023-05-05T23:59:16.682Z,10.86
